sensor_id;sensor_type;location;lat;lon;timestamp;P1;durP1;ratioP1;P2;durP2;ratioP2
1887;SDS011;944;51.574;6.980;2023-06-14T00:02:08;7.70;;;4.50;;
1887;SDS011;944;51.574;6.980;2023-06-14T00:04:39;5.70;;;4.67;;
1887;SDS011;944;51.574;6.980;2023-06-14T00:13:49;9.73;;;4.33;;
1887;SDS011;944;51.574;6.980;2023-06-14T00:24:48;10.20;;;4.87;;
1887;SDS011;944;51.574;6.980;2023-06-14T00:27:17;5.53;;;4.07;;
1887;SDS011;944;51.574;6.980;2023-06-14T00:32:51;6.53;;;4.27;;
1887;SDS011;944;51.574;6.980;2023-06-14T00:35:30;10.53;;;4.37;;
1887;SDS011;944;51.574;6.980;2023-06-14T00:37:57;4.50;;;3.80;;
1887;SDS011;944;51.574;6.980;2023-06-14T00:40:31;4.40;;;3.50;;
1887;SDS011;944;51.574;6.980;2023-06-14T00:43:02;9.90;;;4.20;;
1887;SDS011;944;51.574;6.980;2023-06-14T00:45:53;5.87;;;3.80;;
1887;SDS011;944;51.574;6.980;2023-06-14T00:48:20;9.20;;;4.07;;
1887;SDS011;944;51.574;6.980;2023-06-14T00:51:35;7.70;;;4.30;;
1887;SDS011;944;51.574;6.980;2023-06-14T00:55:10;6.50;;;3.80;;
1887;SDS011;944;51.574;6.980;2023-06-14T00:57:53;5.83;;;3.57;;
1887;SDS011;944;51.574;6.980;2023-06-14T01:00:49;5.80;;;3.80;;
1887;SDS011;944;51.574;6.980;2023-06-14T01:03:17;5.70;;;4.70;;
1887;SDS011;944;51.574;6.980;2023-06-14T01:11:07;7.70;;;3.67;;
1887;SDS011;944;51.574;6.980;2023-06-14T01:38:27;10.23;;;4.00;;
1887;SDS011;944;51.574;6.980;2023-06-14T01:45:05;7.40;;;3.40;;
1887;SDS011;944;51.574;6.980;2023-06-14T01:47:53;6.50;;;3.40;;
1887;SDS011;944;51.574;6.980;2023-06-14T01:51:08;5.40;;;3.70;;
1887;SDS011;944;51.574;6.980;2023-06-14T01:53:40;8.20;;;4.00;;
1887;SDS011;944;51.574;6.980;2023-06-14T01:56:17;9.03;;;3.40;;
1887;SDS011;944;51.574;6.980;2023-06-14T01:59:01;4.00;;;3.30;;
1887;SDS011;944;51.574;6.980;2023-06-14T02:01:59;4.17;;;3.23;;
1887;SDS011;944;51.574;6.980;2023-06-14T02:04:38;4.97;;;3.70;;
1887;SDS011;944;51.574;6.980;2023-06-14T02:07:36;7.30;;;4.50;;
1887;SDS011;944;51.574;6.980;2023-06-14T02:21:08;4.10;;;3.40;;
1887;SDS011;944;51.574;6.980;2023-06-14T02:27:51;11.80;;;3.50;;
1887;SDS011;944;51.574;6.980;2023-06-14T02:34:54;7.83;;;3.40;;
1887;SDS011;944;51.574;6.980;2023-06-14T02:37:25;8.70;;;3.50;;
1887;SDS011;944;51.574;6.980;2023-06-14T02:40:19;7.53;;;3.60;;
1887;SDS011;944;51.574;6.980;2023-06-14T02:42:49;8.87;;;3.53;;
1887;SDS011;944;51.574;6.980;2023-06-14T02:45:26;5.23;;;3.73;;
1887;SDS011;944;51.574;6.980;2023-06-14T02:48:10;12.50;;;3.13;;
1887;SDS011;944;51.574;6.980;2023-06-14T02:56:12;6.43;;;3.53;;
1887;SDS011;944;51.574;6.980;2023-06-14T02:59:00;8.10;;;3.17;;
1887;SDS011;944;51.574;6.980;2023-06-14T03:05:23;10.73;;;3.80;;
1887;SDS011;944;51.574;6.980;2023-06-14T03:16:00;7.23;;;3.50;;
1887;SDS011;944;51.574;6.980;2023-06-14T03:25:22;6.30;;;3.30;;
1887;SDS011;944;51.574;6.980;2023-06-14T03:44:46;15.10;;;3.63;;
1887;SDS011;944;51.574;6.980;2023-06-14T03:47:24;8.77;;;3.10;;
1887;SDS011;944;51.574;6.980;2023-06-14T03:49:54;6.37;;;3.60;;
1887;SDS011;944;51.574;6.980;2023-06-14T03:55:37;11.13;;;3.60;;
1887;SDS011;944;51.574;6.980;2023-06-14T04:06:19;8.90;;;3.30;;
1887;SDS011;944;51.574;6.980;2023-06-14T04:08:51;5.50;;;3.13;;
1887;SDS011;944;51.574;6.980;2023-06-14T04:11:37;5.47;;;3.10;;
1887;SDS011;944;51.574;6.980;2023-06-14T04:19:00;6.50;;;3.40;;
1887;SDS011;944;51.574;6.980;2023-06-14T04:21:27;4.47;;;3.20;;
1887;SDS011;944;51.574;6.980;2023-06-14T04:24:08;7.83;;;3.57;;
1887;SDS011;944;51.574;6.980;2023-06-14T04:26:38;9.03;;;3.27;;
1887;SDS011;944;51.574;6.980;2023-06-14T04:29:08;6.07;;;3.20;;
1887;SDS011;944;51.574;6.980;2023-06-14T04:31:39;8.93;;;3.47;;
1887;SDS011;944;51.574;6.980;2023-06-14T04:34:10;10.20;;;3.30;;
1887;SDS011;944;51.574;6.980;2023-06-14T04:36:41;5.67;;;3.50;;
1887;SDS011;944;51.574;6.980;2023-06-14T04:39:15;10.50;;;3.70;;
1887;SDS011;944;51.574;6.980;2023-06-14T04:41:44;10.33;;;3.30;;
1887;SDS011;944;51.574;6.980;2023-06-14T04:44:18;10.60;;;3.70;;
1887;SDS011;944;51.574;6.980;2023-06-14T04:46:47;5.47;;;3.03;;
1887;SDS011;944;51.574;6.980;2023-06-14T04:49:15;5.70;;;3.73;;
1887;SDS011;944;51.574;6.980;2023-06-14T04:51:48;8.03;;;3.20;;
1887;SDS011;944;51.574;6.980;2023-06-14T04:54:29;5.30;;;3.70;;
1887;SDS011;944;51.574;6.980;2023-06-14T04:57:07;5.27;;;3.27;;
1887;SDS011;944;51.574;6.980;2023-06-14T04:59:39;6.10;;;3.23;;
1887;SDS011;944;51.574;6.980;2023-06-14T05:02:06;3.30;;;3.00;;
1887;SDS011;944;51.574;6.980;2023-06-14T05:04:33;4.00;;;2.90;;
1887;SDS011;944;51.574;6.980;2023-06-14T05:07:05;4.93;;;3.27;;
1887;SDS011;944;51.574;6.980;2023-06-14T05:09:35;4.60;;;3.17;;
1887;SDS011;944;51.574;6.980;2023-06-14T05:12:03;6.07;;;3.27;;
1887;SDS011;944;51.574;6.980;2023-06-14T05:14:33;4.93;;;3.33;;
1887;SDS011;944;51.574;6.980;2023-06-14T05:17:01;4.50;;;3.03;;
1887;SDS011;944;51.574;6.980;2023-06-14T05:19:29;6.43;;;3.60;;
1887;SDS011;944;51.574;6.980;2023-06-14T05:22:24;10.13;;;4.10;;
1887;SDS011;944;51.574;6.980;2023-06-14T05:24:55;5.50;;;3.03;;
1887;SDS011;944;51.574;6.980;2023-06-14T05:27:22;11.90;;;2.90;;
1887;SDS011;944;51.574;6.980;2023-06-14T05:33:37;8.80;;;3.30;;
1887;SDS011;944;51.574;6.980;2023-06-14T05:36:05;8.67;;;3.40;;
1887;SDS011;944;51.574;6.980;2023-06-14T05:38:35;8.17;;;2.80;;
1887;SDS011;944;51.574;6.980;2023-06-14T05:44:45;6.80;;;3.13;;
1887;SDS011;944;51.574;6.980;2023-06-14T05:47:15;6.63;;;3.20;;
1887;SDS011;944;51.574;6.980;2023-06-14T05:49:42;3.63;;;3.10;;
1887;SDS011;944;51.574;6.980;2023-06-14T05:55:50;7.50;;;3.17;;
1887;SDS011;944;51.574;6.980;2023-06-14T05:58:19;8.03;;;3.23;;
1887;SDS011;944;51.574;6.980;2023-06-14T06:00:48;3.43;;;2.83;;
1887;SDS011;944;51.574;6.980;2023-06-14T06:03:15;5.53;;;3.50;;
1887;SDS011;944;51.574;6.980;2023-06-14T06:05:42;4.97;;;3.30;;
1887;SDS011;944;51.574;6.980;2023-06-14T06:08:09;7.37;;;3.03;;
1887;SDS011;944;51.574;6.980;2023-06-14T06:10:36;7.90;;;3.23;;
1887;SDS011;944;51.574;6.980;2023-06-14T06:13:03;8.43;;;3.47;;
1887;SDS011;944;51.574;6.980;2023-06-14T06:19:12;3.30;;;2.60;;
1887;SDS011;944;51.574;6.980;2023-06-14T06:21:40;5.07;;;2.90;;
1887;SDS011;944;51.574;6.980;2023-06-14T06:24:07;7.20;;;2.43;;
1887;SDS011;944;51.574;6.980;2023-06-14T06:26:34;4.70;;;2.87;;
1887;SDS011;944;51.574;6.980;2023-06-14T06:29:01;3.40;;;2.60;;
1887;SDS011;944;51.574;6.980;2023-06-14T06:31:28;8.90;;;2.70;;
1887;SDS011;944;51.574;6.980;2023-06-14T06:33:55;6.97;;;3.10;;
1887;SDS011;944;51.574;6.980;2023-06-14T06:40:05;6.63;;;2.70;;
1887;SDS011;944;51.574;6.980;2023-06-14T06:46:14;8.47;;;2.60;;
1887;SDS011;944;51.574;6.980;2023-06-14T06:52:29;9.23;;;2.90;;
1887;SDS011;944;51.574;6.980;2023-06-14T06:54:59;8.43;;;2.57;;
1887;SDS011;944;51.574;6.980;2023-06-14T06:57:41;12.00;;;2.70;;
1887;SDS011;944;51.574;6.980;2023-06-14T07:00:20;7.03;;;2.47;;
1887;SDS011;944;51.574;6.980;2023-06-14T07:06:32;5.60;;;2.40;;
1887;SDS011;944;51.574;6.980;2023-06-14T07:13:25;4.70;;;2.67;;
1887;SDS011;944;51.574;6.980;2023-06-14T07:20:27;7.23;;;3.10;;
1887;SDS011;944;51.574;6.980;2023-06-14T07:29:18;8.53;;;3.43;;
1887;SDS011;944;51.574;6.980;2023-06-14T07:32:39;7.80;;;2.40;;
1887;SDS011;944;51.574;6.980;2023-06-14T07:36:16;5.20;;;2.87;;
1887;SDS011;944;51.574;6.980;2023-06-14T07:39:20;8.90;;;2.80;;
1887;SDS011;944;51.574;6.980;2023-06-14T07:42:11;9.10;;;2.57;;
1887;SDS011;944;51.574;6.980;2023-06-14T07:55:07;4.33;;;2.97;;
1887;SDS011;944;51.574;6.980;2023-06-14T07:57:53;3.93;;;2.63;;
1887;SDS011;944;51.574;6.980;2023-06-14T08:05:12;7.60;;;2.80;;
1887;SDS011;944;51.574;6.980;2023-06-14T08:07:51;10.50;;;2.57;;
1887;SDS011;944;51.574;6.980;2023-06-14T08:26:08;8.00;;;2.77;;
1887;SDS011;944;51.574;6.980;2023-06-14T08:39:51;2.70;;;2.40;;
1887;SDS011;944;51.574;6.980;2023-06-14T08:43:12;3.40;;;2.20;;
1887;SDS011;944;51.574;6.980;2023-06-14T08:53:01;2.30;;;2.10;;
1887;SDS011;944;51.574;6.980;2023-06-14T08:55:36;6.20;;;2.30;;
1887;SDS011;944;51.574;6.980;2023-06-14T08:58:04;3.77;;;1.80;;
1887;SDS011;944;51.574;6.980;2023-06-14T09:00:36;11.10;;;2.87;;
1887;SDS011;944;51.574;6.980;2023-06-14T09:03:04;14.17;;;2.10;;
1887;SDS011;944;51.574;6.980;2023-06-14T09:09:19;2.60;;;1.83;;
1887;SDS011;944;51.574;6.980;2023-06-14T09:11:48;1.83;;;1.73;;
1887;SDS011;944;51.574;6.980;2023-06-14T09:14:16;2.30;;;1.70;;
1887;SDS011;944;51.574;6.980;2023-06-14T09:16:47;2.03;;;1.83;;
1887;SDS011;944;51.574;6.980;2023-06-14T09:19:20;3.43;;;2.00;;
1887;SDS011;944;51.574;6.980;2023-06-14T09:21:48;4.17;;;1.80;;
1887;SDS011;944;51.574;6.980;2023-06-14T09:24:17;2.60;;;1.73;;
1887;SDS011;944;51.574;6.980;2023-06-14T09:26:46;2.43;;;1.60;;
1887;SDS011;944;51.574;6.980;2023-06-14T09:29:13;2.20;;;1.77;;
1887;SDS011;944;51.574;6.980;2023-06-14T09:31:42;4.10;;;1.77;;
1887;SDS011;944;51.574;6.980;2023-06-14T09:34:14;3.17;;;1.70;;
1887;SDS011;944;51.574;6.980;2023-06-14T09:36:44;1.87;;;1.60;;
1887;SDS011;944;51.574;6.980;2023-06-14T09:39:17;1.80;;;1.40;;
1887;SDS011;944;51.574;6.980;2023-06-14T09:41:44;3.83;;;1.37;;
1887;SDS011;944;51.574;6.980;2023-06-14T09:44:11;1.60;;;1.50;;
1887;SDS011;944;51.574;6.980;2023-06-14T09:46:39;4.87;;;1.47;;
1887;SDS011;944;51.574;6.980;2023-06-14T09:49:06;3.40;;;1.30;;
1887;SDS011;944;51.574;6.980;2023-06-14T09:51:36;3.47;;;1.50;;
1887;SDS011;944;51.574;6.980;2023-06-14T09:54:12;7.63;;;1.50;;
1887;SDS011;944;51.574;6.980;2023-06-14T10:04:23;3.00;;;1.20;;
1887;SDS011;944;51.574;6.980;2023-06-14T10:07:21;5.73;;;1.30;;
1887;SDS011;944;51.574;6.980;2023-06-14T10:14:04;2.20;;;1.30;;
1887;SDS011;944;51.574;6.980;2023-06-14T10:16:39;1.73;;;1.50;;
1887;SDS011;944;51.574;6.980;2023-06-14T10:45:35;1.37;;;1.20;;
1887;SDS011;944;51.574;6.980;2023-06-14T12:40:48;3.47;;;2.20;;
1887;SDS011;944;51.574;6.980;2023-06-14T12:43:30;7.90;;;2.20;;
1887;SDS011;944;51.574;6.980;2023-06-14T12:45:57;3.60;;;1.80;;
1887;SDS011;944;51.574;6.980;2023-06-14T12:48:24;4.23;;;2.20;;
1887;SDS011;944;51.574;6.980;2023-06-14T12:50:52;2.23;;;1.97;;
1887;SDS011;944;51.574;6.980;2023-06-14T12:53:19;5.37;;;1.87;;
1887;SDS011;944;51.574;6.980;2023-06-14T12:55:46;3.63;;;2.00;;
1887;SDS011;944;51.574;6.980;2023-06-14T13:09:28;3.13;;;1.70;;
1887;SDS011;944;51.574;6.980;2023-06-14T13:12:05;4.00;;;1.70;;
1887;SDS011;944;51.574;6.980;2023-06-14T13:14:46;3.73;;;1.90;;
1887;SDS011;944;51.574;6.980;2023-06-14T13:17:18;9.83;;;2.33;;
1887;SDS011;944;51.574;6.980;2023-06-14T13:26:38;3.80;;;1.87;;
1887;SDS011;944;51.574;6.980;2023-06-14T13:30:10;5.50;;;3.37;;
1887;SDS011;944;51.574;6.980;2023-06-14T13:33:10;13.43;;;2.27;;
1887;SDS011;944;51.574;6.980;2023-06-14T13:35:42;2.03;;;1.90;;
1887;SDS011;944;51.574;6.980;2023-06-14T13:38:09;7.27;;;2.10;;
1887;SDS011;944;51.574;6.980;2023-06-14T13:40:37;2.30;;;2.10;;
1887;SDS011;944;51.574;6.980;2023-06-14T13:43:07;6.97;;;2.20;;
1887;SDS011;944;51.574;6.980;2023-06-14T13:45:35;5.00;;;2.03;;
1887;SDS011;944;51.574;6.980;2023-06-14T13:48:05;10.23;;;2.43;;
1887;SDS011;944;51.574;6.980;2023-06-14T13:50:34;5.13;;;2.00;;
1887;SDS011;944;51.574;6.980;2023-06-14T13:53:03;3.37;;;1.77;;
1887;SDS011;944;51.574;6.980;2023-06-14T13:55:30;2.17;;;1.90;;
1887;SDS011;944;51.574;6.980;2023-06-14T13:57:58;2.97;;;2.23;;
1887;SDS011;944;51.574;6.980;2023-06-14T14:04:07;8.20;;;2.60;;
1887;SDS011;944;51.574;6.980;2023-06-14T14:06:34;4.27;;;2.40;;
1887;SDS011;944;51.574;6.980;2023-06-14T14:09:04;5.63;;;2.27;;
1887;SDS011;944;51.574;6.980;2023-06-14T14:11:32;2.07;;;1.93;;
1887;SDS011;944;51.574;6.980;2023-06-14T14:14:01;3.30;;;2.20;;
1887;SDS011;944;51.574;6.980;2023-06-14T14:16:29;4.13;;;2.13;;
1887;SDS011;944;51.574;6.980;2023-06-14T14:18:56;4.43;;;2.20;;
1887;SDS011;944;51.574;6.980;2023-06-14T14:21:25;4.83;;;2.40;;
1887;SDS011;944;51.574;6.980;2023-06-14T14:27:32;3.37;;;2.20;;
1887;SDS011;944;51.574;6.980;2023-06-14T14:29:59;2.33;;;2.13;;
1887;SDS011;944;51.574;6.980;2023-06-14T14:32:26;6.07;;;2.00;;
1887;SDS011;944;51.574;6.980;2023-06-14T14:34:53;4.53;;;1.73;;
1887;SDS011;944;51.574;6.980;2023-06-14T14:37:22;4.07;;;2.10;;
1887;SDS011;944;51.574;6.980;2023-06-14T14:39:54;2.53;;;2.30;;
1887;SDS011;944;51.574;6.980;2023-06-14T14:42:21;7.10;;;2.40;;
1887;SDS011;944;51.574;6.980;2023-06-14T14:47:44;4.63;;;2.30;;
1887;SDS011;944;51.574;6.980;2023-06-14T14:50:11;5.00;;;2.50;;
1887;SDS011;944;51.574;6.980;2023-06-14T14:52:41;2.77;;;1.83;;
1887;SDS011;944;51.574;6.980;2023-06-14T14:55:08;3.10;;;1.70;;
1887;SDS011;944;51.574;6.980;2023-06-14T14:57:35;9.70;;;2.10;;
1887;SDS011;944;51.574;6.980;2023-06-14T15:00:05;4.67;;;1.90;;
1887;SDS011;944;51.574;6.980;2023-06-14T15:02:34;2.13;;;2.03;;
1887;SDS011;944;51.574;6.980;2023-06-14T15:05:01;6.20;;;2.17;;
1887;SDS011;944;51.574;6.980;2023-06-14T15:07:29;5.27;;;2.03;;
1887;SDS011;944;51.574;6.980;2023-06-14T15:09:59;28.57;;;3.30;;
1887;SDS011;944;51.574;6.980;2023-06-14T15:12:26;4.10;;;1.90;;
1887;SDS011;944;51.574;6.980;2023-06-14T15:14:59;4.70;;;2.20;;
1887;SDS011;944;51.574;6.980;2023-06-14T15:17:32;8.70;;;2.27;;
1887;SDS011;944;51.574;6.980;2023-06-14T15:19:59;3.90;;;2.30;;
1887;SDS011;944;51.574;6.980;2023-06-14T15:23:08;2.37;;;2.17;;
1887;SDS011;944;51.574;6.980;2023-06-14T15:28:50;6.60;;;2.23;;
1887;SDS011;944;51.574;6.980;2023-06-14T15:32:13;4.10;;;2.20;;
1887;SDS011;944;51.574;6.980;2023-06-14T15:35:33;7.60;;;2.30;;
1887;SDS011;944;51.574;6.980;2023-06-14T16:11:18;5.80;;;2.43;;
1887;SDS011;944;51.574;6.980;2023-06-14T16:14:02;3.00;;;2.33;;
1887;SDS011;944;51.574;6.980;2023-06-14T16:19:31;2.67;;;2.47;;
1887;SDS011;944;51.574;6.980;2023-06-14T16:25:54;3.50;;;3.20;;
1887;SDS011;944;51.574;6.980;2023-06-14T16:28:29;8.60;;;2.37;;
1887;SDS011;944;51.574;6.980;2023-06-14T16:30:58;4.07;;;2.90;;
1887;SDS011;944;51.574;6.980;2023-06-14T16:33:25;3.77;;;2.30;;
1887;SDS011;944;51.574;6.980;2023-06-14T16:35:55;6.60;;;2.73;;
1887;SDS011;944;51.574;6.980;2023-06-14T16:38:36;4.40;;;2.73;;
1887;SDS011;944;51.574;6.980;2023-06-14T16:41:23;4.97;;;2.40;;
1887;SDS011;944;51.574;6.980;2023-06-14T16:44:26;7.70;;;2.87;;
1887;SDS011;944;51.574;6.980;2023-06-14T16:47:36;3.83;;;2.50;;
1887;SDS011;944;51.574;6.980;2023-06-14T16:50:17;3.00;;;2.30;;
1887;SDS011;944;51.574;6.980;2023-06-14T16:56:13;3.20;;;2.00;;
1887;SDS011;944;51.574;6.980;2023-06-14T17:06:10;8.20;;;2.83;;
1887;SDS011;944;51.574;6.980;2023-06-14T17:08:50;3.67;;;2.70;;
1887;SDS011;944;51.574;6.980;2023-06-14T17:11:22;2.67;;;2.40;;
1887;SDS011;944;51.574;6.980;2023-06-14T17:14:05;2.57;;;2.37;;
1887;SDS011;944;51.574;6.980;2023-06-14T17:16:36;4.83;;;2.40;;
1887;SDS011;944;51.574;6.980;2023-06-14T17:19:40;9.30;;;2.53;;
1887;SDS011;944;51.574;6.980;2023-06-14T17:22:08;2.30;;;2.10;;
1887;SDS011;944;51.574;6.980;2023-06-14T17:24:36;2.53;;;2.33;;
1887;SDS011;944;51.574;6.980;2023-06-14T17:27:03;8.60;;;2.40;;
1887;SDS011;944;51.574;6.980;2023-06-14T17:29:33;2.30;;;2.10;;
1887;SDS011;944;51.574;6.980;2023-06-14T17:32:00;10.80;;;2.63;;
1887;SDS011;944;51.574;6.980;2023-06-14T17:34:27;4.20;;;2.20;;
1887;SDS011;944;51.574;6.980;2023-06-14T17:36:56;5.00;;;2.60;;
1887;SDS011;944;51.574;6.980;2023-06-14T17:39:29;3.60;;;2.80;;
1887;SDS011;944;51.574;6.980;2023-06-14T17:41:58;6.83;;;2.30;;
1887;SDS011;944;51.574;6.980;2023-06-14T17:44:30;8.20;;;2.27;;
1887;SDS011;944;51.574;6.980;2023-06-14T17:49:51;2.80;;;2.57;;
1887;SDS011;944;51.574;6.980;2023-06-14T17:52:21;7.33;;;2.30;;
1887;SDS011;944;51.574;6.980;2023-06-14T17:54:52;2.63;;;2.30;;
1887;SDS011;944;51.574;6.980;2023-06-14T17:57:19;8.60;;;2.40;;
1887;SDS011;944;51.574;6.980;2023-06-14T17:59:47;3.40;;;2.20;;
1887;SDS011;944;51.574;6.980;2023-06-14T18:02:19;3.47;;;2.47;;
1887;SDS011;944;51.574;6.980;2023-06-14T18:04:50;12.63;;;2.20;;
1887;SDS011;944;51.574;6.980;2023-06-14T18:07:27;4.90;;;2.50;;
1887;SDS011;944;51.574;6.980;2023-06-14T18:10:06;6.80;;;1.90;;
1887;SDS011;944;51.574;6.980;2023-06-14T18:12:39;8.60;;;2.17;;
1887;SDS011;944;51.574;6.980;2023-06-14T18:15:13;11.00;;;2.30;;
1887;SDS011;944;51.574;6.980;2023-06-14T18:17:48;6.23;;;2.10;;
1887;SDS011;944;51.574;6.980;2023-06-14T18:20:17;6.53;;;2.13;;
1887;SDS011;944;51.574;6.980;2023-06-14T18:22:54;4.30;;;2.33;;
1887;SDS011;944;51.574;6.980;2023-06-14T18:25:29;4.30;;;2.40;;
1887;SDS011;944;51.574;6.980;2023-06-14T18:28:05;2.73;;;2.20;;
1887;SDS011;944;51.574;6.980;2023-06-14T18:30:34;3.83;;;2.00;;
1887;SDS011;944;51.574;6.980;2023-06-14T18:33:02;8.43;;;2.67;;
1887;SDS011;944;51.574;6.980;2023-06-14T18:35:36;3.33;;;2.00;;
1887;SDS011;944;51.574;6.980;2023-06-14T18:38:19;4.30;;;2.40;;
1887;SDS011;944;51.574;6.980;2023-06-14T18:40:56;3.30;;;2.13;;
1887;SDS011;944;51.574;6.980;2023-06-14T18:43:34;6.30;;;2.57;;
1887;SDS011;944;51.574;6.980;2023-06-14T18:46:08;5.40;;;2.40;;
1887;SDS011;944;51.574;6.980;2023-06-14T18:48:51;2.50;;;2.30;;
1887;SDS011;944;51.574;6.980;2023-06-14T18:51:21;4.80;;;2.20;;
1887;SDS011;944;51.574;6.980;2023-06-14T18:53:56;4.13;;;2.37;;
1887;SDS011;944;51.574;6.980;2023-06-14T18:56:37;2.20;;;2.00;;
1887;SDS011;944;51.574;6.980;2023-06-14T18:59:08;3.27;;;2.10;;
1887;SDS011;944;51.574;6.980;2023-06-14T19:01:35;3.40;;;2.30;;
1887;SDS011;944;51.574;6.980;2023-06-14T19:04:04;2.63;;;1.90;;
1887;SDS011;944;51.574;6.980;2023-06-14T19:07:01;2.87;;;2.60;;
1887;SDS011;944;51.574;6.980;2023-06-14T19:09:35;3.07;;;1.93;;
1887;SDS011;944;51.574;6.980;2023-06-14T19:12:12;3.73;;;2.10;;
1887;SDS011;944;51.574;6.980;2023-06-14T19:14:40;2.30;;;2.10;;
1887;SDS011;944;51.574;6.980;2023-06-14T19:17:22;4.13;;;2.03;;
1887;SDS011;944;51.574;6.980;2023-06-14T19:19:56;2.40;;;1.80;;
1887;SDS011;944;51.574;6.980;2023-06-14T19:25:56;3.30;;;1.83;;
1887;SDS011;944;51.574;6.980;2023-06-14T19:31:44;4.40;;;2.50;;
1887;SDS011;944;51.574;6.980;2023-06-14T19:38:30;2.40;;;1.97;;
1887;SDS011;944;51.574;6.980;2023-06-14T19:40:57;2.17;;;1.97;;
1887;SDS011;944;51.574;6.980;2023-06-14T19:43:27;2.60;;;2.40;;
1887;SDS011;944;51.574;6.980;2023-06-14T19:46:13;2.47;;;2.27;;
1887;SDS011;944;51.574;6.980;2023-06-14T19:48:52;3.17;;;2.17;;
1887;SDS011;944;51.574;6.980;2023-06-14T19:51:19;2.53;;;1.60;;
1887;SDS011;944;51.574;6.980;2023-06-14T19:53:53;2.60;;;2.40;;
1887;SDS011;944;51.574;6.980;2023-06-14T19:59:29;2.17;;;2.07;;
1887;SDS011;944;51.574;6.980;2023-06-14T20:02:17;2.27;;;2.07;;
1887;SDS011;944;51.574;6.980;2023-06-14T20:04:45;5.53;;;2.40;;
1887;SDS011;944;51.574;6.980;2023-06-14T20:07:19;3.03;;;2.53;;
1887;SDS011;944;51.574;6.980;2023-06-14T20:09:57;2.27;;;2.07;;
1887;SDS011;944;51.574;6.980;2023-06-14T20:12:29;3.37;;;2.30;;
1887;SDS011;944;51.574;6.980;2023-06-14T20:15:06;2.20;;;2.00;;
1887;SDS011;944;51.574;6.980;2023-06-14T20:18:37;3.40;;;2.10;;
1887;SDS011;944;51.574;6.980;2023-06-14T20:21:07;3.53;;;1.90;;
1887;SDS011;944;51.574;6.980;2023-06-14T20:23:36;2.17;;;1.97;;
1887;SDS011;944;51.574;6.980;2023-06-14T20:26:03;2.80;;;2.13;;
1887;SDS011;944;51.574;6.980;2023-06-14T20:28:33;2.80;;;2.20;;
1887;SDS011;944;51.574;6.980;2023-06-14T20:31:00;10.73;;;2.43;;
1887;SDS011;944;51.574;6.980;2023-06-14T20:33:30;2.30;;;2.20;;
1887;SDS011;944;51.574;6.980;2023-06-14T20:36:00;2.60;;;2.20;;
1887;SDS011;944;51.574;6.980;2023-06-14T20:38:27;5.10;;;2.07;;
1887;SDS011;944;51.574;6.980;2023-06-14T20:40:54;3.60;;;2.33;;
1887;SDS011;944;51.574;6.980;2023-06-14T20:43:24;4.17;;;2.33;;
1887;SDS011;944;51.574;6.980;2023-06-14T20:45:51;3.63;;;2.13;;
1887;SDS011;944;51.574;6.980;2023-06-14T20:48:22;3.10;;;2.37;;
1887;SDS011;944;51.574;6.980;2023-06-14T20:50:52;4.50;;;2.47;;
1887;SDS011;944;51.574;6.980;2023-06-14T20:53:20;3.00;;;2.80;;
1887;SDS011;944;51.574;6.980;2023-06-14T20:55:59;2.33;;;2.13;;
1887;SDS011;944;51.574;6.980;2023-06-14T20:58:28;2.87;;;2.47;;
1887;SDS011;944;51.574;6.980;2023-06-14T21:00:56;5.47;;;2.50;;
1887;SDS011;944;51.574;6.980;2023-06-14T21:03:23;3.77;;;2.20;;
1887;SDS011;944;51.574;6.980;2023-06-14T21:05:52;2.97;;;2.00;;
1887;SDS011;944;51.574;6.980;2023-06-14T21:08:23;2.93;;;2.37;;
1887;SDS011;944;51.574;6.980;2023-06-14T21:11:05;4.20;;;2.50;;
1887;SDS011;944;51.574;6.980;2023-06-14T21:13:35;7.80;;;2.30;;
1887;SDS011;944;51.574;6.980;2023-06-14T21:17:25;5.17;;;2.67;;
1887;SDS011;944;51.574;6.980;2023-06-14T21:23:30;6.23;;;2.27;;
1887;SDS011;944;51.574;6.980;2023-06-14T21:26:05;2.87;;;2.30;;
1887;SDS011;944;51.574;6.980;2023-06-14T21:28:34;2.60;;;2.40;;
1887;SDS011;944;51.574;6.980;2023-06-14T21:31:07;3.20;;;2.20;;
1887;SDS011;944;51.574;6.980;2023-06-14T21:33:38;3.93;;;2.77;;
1887;SDS011;944;51.574;6.980;2023-06-14T21:36:09;5.43;;;2.97;;
1887;SDS011;944;51.574;6.980;2023-06-14T21:38:44;2.60;;;2.40;;
1887;SDS011;944;51.574;6.980;2023-06-14T21:41:14;5.20;;;2.93;;
1887;SDS011;944;51.574;6.980;2023-06-14T21:43:41;6.10;;;2.80;;
1887;SDS011;944;51.574;6.980;2023-06-14T21:46:13;5.60;;;2.90;;
1887;SDS011;944;51.574;6.980;2023-06-14T21:52:24;2.90;;;2.70;;
1887;SDS011;944;51.574;6.980;2023-06-14T21:55:07;2.83;;;2.60;;
1887;SDS011;944;51.574;6.980;2023-06-14T21:57:35;3.93;;;2.40;;
1887;SDS011;944;51.574;6.980;2023-06-14T22:00:02;3.83;;;2.90;;
1887;SDS011;944;51.574;6.980;2023-06-14T22:02:48;3.87;;;2.80;;
1887;SDS011;944;51.574;6.980;2023-06-14T22:05:15;4.53;;;2.87;;
1887;SDS011;944;51.574;6.980;2023-06-14T22:07:42;8.30;;;3.20;;
1887;SDS011;944;51.574;6.980;2023-06-14T22:10:14;12.03;;;2.97;;
1887;SDS011;944;51.574;6.980;2023-06-14T22:12:59;5.40;;;3.00;;
1887;SDS011;944;51.574;6.980;2023-06-14T22:15:26;8.17;;;3.10;;
1887;SDS011;944;51.574;6.980;2023-06-14T22:17:58;8.00;;;3.00;;
1887;SDS011;944;51.574;6.980;2023-06-14T22:20:25;8.53;;;3.00;;
1887;SDS011;944;51.574;6.980;2023-06-14T22:26:33;3.60;;;3.00;;
1887;SDS011;944;51.574;6.980;2023-06-14T22:29:12;3.43;;;3.03;;
1887;SDS011;944;51.574;6.980;2023-06-14T22:31:41;4.20;;;3.40;;
1887;SDS011;944;51.574;6.980;2023-06-14T22:34:09;9.03;;;3.13;;
1887;SDS011;944;51.574;6.980;2023-06-14T22:36:36;12.23;;;2.53;;
1887;SDS011;944;51.574;6.980;2023-06-14T22:39:05;8.43;;;3.00;;
1887;SDS011;944;51.574;6.980;2023-06-14T22:45:18;7.57;;;3.00;;
1887;SDS011;944;51.574;6.980;2023-06-14T22:47:49;13.10;;;3.30;;
1887;SDS011;944;51.574;6.980;2023-06-14T22:50:23;6.47;;;2.93;;
1887;SDS011;944;51.574;6.980;2023-06-14T22:52:50;10.07;;;3.10;;
1887;SDS011;944;51.574;6.980;2023-06-14T22:55:18;5.80;;;3.10;;
1887;SDS011;944;51.574;6.980;2023-06-14T22:57:53;3.40;;;2.90;;
1887;SDS011;944;51.574;6.980;2023-06-14T23:00:23;4.10;;;2.90;;
1887;SDS011;944;51.574;6.980;2023-06-14T23:02:51;3.83;;;3.00;;
1887;SDS011;944;51.574;6.980;2023-06-14T23:05:18;4.07;;;3.20;;
1887;SDS011;944;51.574;6.980;2023-06-14T23:07:48;5.30;;;3.03;;
1887;SDS011;944;51.574;6.980;2023-06-14T23:10:17;4.70;;;2.90;;
1887;SDS011;944;51.574;6.980;2023-06-14T23:12:47;3.83;;;2.60;;
1887;SDS011;944;51.574;6.980;2023-06-14T23:15:14;5.33;;;3.17;;
1887;SDS011;944;51.574;6.980;2023-06-14T23:17:43;4.90;;;3.30;;
1887;SDS011;944;51.574;6.980;2023-06-14T23:20:15;6.90;;;2.97;;
1887;SDS011;944;51.574;6.980;2023-06-14T23:22:45;4.17;;;3.77;;
1887;SDS011;944;51.574;6.980;2023-06-14T23:25:12;6.10;;;3.70;;
1887;SDS011;944;51.574;6.980;2023-06-14T23:27:39;15.87;;;3.17;;
1887;SDS011;944;51.574;6.980;2023-06-14T23:30:08;6.53;;;2.90;;
1887;SDS011;944;51.574;6.980;2023-06-14T23:32:38;6.57;;;3.87;;
1887;SDS011;944;51.574;6.980;2023-06-14T23:35:12;4.93;;;3.20;;
1887;SDS011;944;51.574;6.980;2023-06-14T23:37:42;7.30;;;3.10;;
1887;SDS011;944;51.574;6.980;2023-06-14T23:40:10;8.73;;;2.90;;
1887;SDS011;944;51.574;6.980;2023-06-14T23:42:38;5.50;;;2.90;;
1887;SDS011;944;51.574;6.980;2023-06-14T23:45:07;9.60;;;3.57;;
1887;SDS011;944;51.574;6.980;2023-06-14T23:47:46;7.93;;;3.30;;
1887;SDS011;944;51.574;6.980;2023-06-14T23:50:18;6.97;;;3.70;;
1887;SDS011;944;51.574;6.980;2023-06-14T23:52:46;4.83;;;3.40;;
1887;SDS011;944;51.574;6.980;2023-06-14T23:55:27;4.27;;;3.30;;
1887;SDS011;944;51.574;6.980;2023-06-14T23:57:58;5.40;;;3.60;;
